sensor_id;sensor_type;location;lat;lon;timestamp;P1;durP1;ratioP1;P2;durP2;ratioP2
64297;SDS011;50639;53.270;7.956;2023-08-12T00:00:41;19.35;;;10.35;;
64297;SDS011;50639;53.270;7.956;2023-08-12T00:03:06;14.13;;;9.05;;
64297;SDS011;50639;53.270;7.956;2023-08-12T00:05:32;19.63;;;10.35;;
64297;SDS011;50639;53.270;7.956;2023-08-12T00:07:58;12.80;;;7.63;;
64297;SDS011;50639;53.270;7.956;2023-08-12T00:10:23;15.80;;;7.97;;
64297;SDS011;50639;53.270;7.956;2023-08-12T00:12:49;17.63;;;8.77;;
64297;SDS011;50639;53.270;7.956;2023-08-12T00:15:14;14.70;;;8.10;;
64297;SDS011;50639;53.270;7.956;2023-08-12T00:17:39;22.40;;;8.35;;
64297;SDS011;50639;53.270;7.956;2023-08-12T00:20:06;18.55;;;9.00;;
64297;SDS011;50639;53.270;7.956;2023-08-12T00:24:59;18.60;;;9.03;;
64297;SDS011;50639;53.270;7.956;2023-08-12T00:27:24;19.17;;;10.15;;
64297;SDS011;50639;53.270;7.956;2023-08-12T00:29:50;17.23;;;8.77;;
64297;SDS011;50639;53.270;7.956;2023-08-12T00:32:16;19.05;;;8.98;;
64297;SDS011;50639;53.270;7.956;2023-08-12T00:34:42;12.10;;;7.78;;
64297;SDS011;50639;53.270;7.956;2023-08-12T00:37:07;15.25;;;8.85;;
64297;SDS011;50639;53.270;7.956;2023-08-12T00:39:33;20.40;;;10.98;;
64297;SDS011;50639;53.270;7.956;2023-08-12T00:41:58;18.05;;;9.05;;
64297;SDS011;50639;53.270;7.956;2023-08-12T00:44:23;14.48;;;8.73;;
64297;SDS011;50639;53.270;7.956;2023-08-12T00:46:49;15.68;;;8.32;;
64297;SDS011;50639;53.270;7.956;2023-08-12T00:49:15;20.37;;;11.33;;
64297;SDS011;50639;53.270;7.956;2023-08-12T00:51:41;22.10;;;11.65;;
64297;SDS011;50639;53.270;7.956;2023-08-12T00:54:12;19.88;;;11.10;;
64297;SDS011;50639;53.270;7.956;2023-08-12T00:56:39;15.90;;;8.90;;
64297;SDS011;50639;53.270;7.956;2023-08-12T00:59:07;20.23;;;11.07;;
64297;SDS011;50639;53.270;7.956;2023-08-12T01:01:34;16.98;;;9.80;;
64297;SDS011;50639;53.270;7.956;2023-08-12T01:04:00;22.35;;;11.43;;
64297;SDS011;50639;53.270;7.956;2023-08-12T01:06:26;15.25;;;9.05;;
64297;SDS011;50639;53.270;7.956;2023-08-12T01:08:52;18.20;;;9.80;;
64297;SDS011;50639;53.270;7.956;2023-08-12T01:16:33;20.88;;;11.32;;
64297;SDS011;50639;53.270;7.956;2023-08-12T01:19:02;15.70;;;10.30;;
64297;SDS011;50639;53.270;7.956;2023-08-12T01:21:31;16.88;;;8.57;;
64297;SDS011;50639;53.270;7.956;2023-08-12T01:23:58;19.13;;;10.93;;
64297;SDS011;50639;53.270;7.956;2023-08-12T01:26:24;16.67;;;9.02;;
64297;SDS011;50639;53.270;7.956;2023-08-12T01:28:50;18.17;;;9.27;;
64297;SDS011;50639;53.270;7.956;2023-08-12T01:31:18;18.63;;;10.73;;
64297;SDS011;50639;53.270;7.956;2023-08-12T01:33:51;16.92;;;9.20;;
64297;SDS011;50639;53.270;7.956;2023-08-12T01:36:34;19.30;;;10.60;;
64297;SDS011;50639;53.270;7.956;2023-08-12T01:41:26;17.67;;;9.13;;
64297;SDS011;50639;53.270;7.956;2023-08-12T01:43:54;15.60;;;9.48;;
64297;SDS011;50639;53.270;7.956;2023-08-12T01:46:21;17.90;;;11.60;;
64297;SDS011;50639;53.270;7.956;2023-08-12T01:48:46;20.30;;;11.30;;
64297;SDS011;50639;53.270;7.956;2023-08-12T01:51:12;17.42;;;10.68;;
64297;SDS011;50639;53.270;7.956;2023-08-12T01:53:37;21.83;;;13.02;;
64297;SDS011;50639;53.270;7.956;2023-08-12T01:56:02;18.33;;;11.80;;
64297;SDS011;50639;53.270;7.956;2023-08-12T01:58:28;19.75;;;11.88;;
64297;SDS011;50639;53.270;7.956;2023-08-12T02:00:54;15.75;;;10.70;;
64297;SDS011;50639;53.270;7.956;2023-08-12T02:03:19;20.15;;;12.98;;
64297;SDS011;50639;53.270;7.956;2023-08-12T02:05:45;20.15;;;12.52;;
64297;SDS011;50639;53.270;7.956;2023-08-12T02:08:10;20.15;;;12.25;;
64297;SDS011;50639;53.270;7.956;2023-08-12T02:10:36;17.13;;;11.02;;
64297;SDS011;50639;53.270;7.956;2023-08-12T02:13:02;18.33;;;12.15;;
64297;SDS011;50639;53.270;7.956;2023-08-12T02:15:28;18.95;;;10.65;;
64297;SDS011;50639;53.270;7.956;2023-08-12T02:17:53;16.20;;;11.82;;
64297;SDS011;50639;53.270;7.956;2023-08-12T02:20:19;17.13;;;10.05;;
64297;SDS011;50639;53.270;7.956;2023-08-12T02:22:44;23.20;;;13.45;;
64297;SDS011;50639;53.270;7.956;2023-08-12T02:25:10;29.70;;;16.42;;
64297;SDS011;50639;53.270;7.956;2023-08-12T02:27:35;23.83;;;16.13;;
64297;SDS011;50639;53.270;7.956;2023-08-12T02:30:00;18.15;;;10.73;;
64297;SDS011;50639;53.270;7.956;2023-08-12T02:32:26;29.50;;;15.85;;
64297;SDS011;50639;53.270;7.956;2023-08-12T02:34:51;18.92;;;13.38;;
64297;SDS011;50639;53.270;7.956;2023-08-12T02:37:17;17.60;;;12.52;;
64297;SDS011;50639;53.270;7.956;2023-08-12T02:39:42;16.60;;;11.65;;
64297;SDS011;50639;53.270;7.956;2023-08-12T02:42:08;17.38;;;12.13;;
64297;SDS011;50639;53.270;7.956;2023-08-12T02:44:34;19.25;;;11.68;;
64297;SDS011;50639;53.270;7.956;2023-08-12T02:46:59;19.85;;;12.50;;
64297;SDS011;50639;53.270;7.956;2023-08-12T02:49:24;14.77;;;10.88;;
64297;SDS011;50639;53.270;7.956;2023-08-12T02:51:50;18.83;;;12.13;;
64297;SDS011;50639;53.270;7.956;2023-08-12T02:54:15;17.05;;;12.13;;
64297;SDS011;50639;53.270;7.956;2023-08-12T02:56:41;22.67;;;14.70;;
64297;SDS011;50639;53.270;7.956;2023-08-12T02:59:06;16.85;;;11.50;;
64297;SDS011;50639;53.270;7.956;2023-08-12T03:01:32;19.50;;;11.00;;
64297;SDS011;50639;53.270;7.956;2023-08-12T03:03:57;18.13;;;11.65;;
64297;SDS011;50639;53.270;7.956;2023-08-12T03:06:23;20.02;;;12.95;;
64297;SDS011;50639;53.270;7.956;2023-08-12T03:08:48;16.65;;;11.32;;
64297;SDS011;50639;53.270;7.956;2023-08-12T03:11:14;15.20;;;9.95;;
64297;SDS011;50639;53.270;7.956;2023-08-12T03:13:40;14.00;;;11.10;;
64297;SDS011;50639;53.270;7.956;2023-08-12T03:16:10;16.83;;;10.80;;
64297;SDS011;50639;53.270;7.956;2023-08-12T03:18:41;17.35;;;12.52;;
64297;SDS011;50639;53.270;7.956;2023-08-12T03:21:07;13.75;;;9.88;;
64297;SDS011;50639;53.270;7.956;2023-08-12T03:23:34;14.40;;;9.77;;
64297;SDS011;50639;53.270;7.956;2023-08-12T03:26:00;17.05;;;10.52;;
64297;SDS011;50639;53.270;7.956;2023-08-12T03:28:26;18.67;;;11.25;;
64297;SDS011;50639;53.270;7.956;2023-08-12T03:30:51;20.77;;;14.70;;
64297;SDS011;50639;53.270;7.956;2023-08-12T03:33:19;15.38;;;10.02;;
64297;SDS011;50639;53.270;7.956;2023-08-12T03:35:45;14.68;;;9.57;;
64297;SDS011;50639;53.270;7.956;2023-08-12T03:38:13;17.95;;;10.32;;
64297;SDS011;50639;53.270;7.956;2023-08-12T03:40:38;16.20;;;11.20;;
64297;SDS011;50639;53.270;7.956;2023-08-12T03:43:05;14.77;;;10.02;;
64297;SDS011;50639;53.270;7.956;2023-08-12T03:45:31;11.60;;;8.48;;
64297;SDS011;50639;53.270;7.956;2023-08-12T03:47:56;14.60;;;11.27;;
64297;SDS011;50639;53.270;7.956;2023-08-12T03:50:22;20.63;;;12.98;;
64297;SDS011;50639;53.270;7.956;2023-08-12T03:52:47;11.05;;;8.05;;
64297;SDS011;50639;53.270;7.956;2023-08-12T03:55:13;11.47;;;8.60;;
64297;SDS011;50639;53.270;7.956;2023-08-12T03:57:38;14.80;;;9.27;;
64297;SDS011;50639;53.270;7.956;2023-08-12T04:00:05;18.75;;;11.68;;
64297;SDS011;50639;53.270;7.956;2023-08-12T04:02:39;11.18;;;8.50;;
64297;SDS011;50639;53.270;7.956;2023-08-12T04:05:05;15.90;;;9.70;;
64297;SDS011;50639;53.270;7.956;2023-08-12T04:07:31;16.42;;;11.55;;
64297;SDS011;50639;53.270;7.956;2023-08-12T04:09:56;13.52;;;8.50;;
64297;SDS011;50639;53.270;7.956;2023-08-12T04:12:22;18.85;;;12.15;;
64297;SDS011;50639;53.270;7.956;2023-08-12T04:14:47;14.82;;;10.73;;
64297;SDS011;50639;53.270;7.956;2023-08-12T04:17:13;13.48;;;8.77;;
64297;SDS011;50639;53.270;7.956;2023-08-12T04:19:40;10.90;;;7.95;;
64297;SDS011;50639;53.270;7.956;2023-08-12T04:22:05;11.65;;;8.40;;
64297;SDS011;50639;53.270;7.956;2023-08-12T04:24:31;15.38;;;11.70;;
64297;SDS011;50639;53.270;7.956;2023-08-12T04:26:56;15.88;;;10.98;;
64297;SDS011;50639;53.270;7.956;2023-08-12T04:29:22;14.48;;;9.40;;
64297;SDS011;50639;53.270;7.956;2023-08-12T04:31:47;10.82;;;7.35;;
64297;SDS011;50639;53.270;7.956;2023-08-12T04:34:13;12.82;;;8.65;;
64297;SDS011;50639;53.270;7.956;2023-08-12T04:36:38;10.88;;;7.53;;
64297;SDS011;50639;53.270;7.956;2023-08-12T04:39:04;13.15;;;8.38;;
64297;SDS011;50639;53.270;7.956;2023-08-12T04:41:31;14.37;;;9.57;;
64297;SDS011;50639;53.270;7.956;2023-08-12T04:43:57;10.50;;;7.70;;
64297;SDS011;50639;53.270;7.956;2023-08-12T04:46:26;10.65;;;6.75;;
64297;SDS011;50639;53.270;7.956;2023-08-12T04:48:52;10.38;;;7.38;;
64297;SDS011;50639;53.270;7.956;2023-08-12T04:51:17;11.48;;;7.80;;
64297;SDS011;50639;53.270;7.956;2023-08-12T04:53:43;16.58;;;10.23;;
64297;SDS011;50639;53.270;7.956;2023-08-12T04:56:08;13.30;;;8.20;;
64297;SDS011;50639;53.270;7.956;2023-08-12T04:58:34;15.13;;;8.82;;
64297;SDS011;50639;53.270;7.956;2023-08-12T05:01:00;10.77;;;7.32;;
64297;SDS011;50639;53.270;7.956;2023-08-12T05:03:26;13.90;;;7.15;;
64297;SDS011;50639;53.270;7.956;2023-08-12T05:05:53;14.05;;;7.95;;
64297;SDS011;50639;53.270;7.956;2023-08-12T05:08:23;16.15;;;9.10;;
64297;SDS011;50639;53.270;7.956;2023-08-12T05:10:49;10.77;;;7.57;;
64297;SDS011;50639;53.270;7.956;2023-08-12T05:13:15;11.82;;;6.70;;
64297;SDS011;50639;53.270;7.956;2023-08-12T05:15:41;13.83;;;7.60;;
64297;SDS011;50639;53.270;7.956;2023-08-12T05:18:10;13.30;;;8.10;;
64297;SDS011;50639;53.270;7.956;2023-08-12T05:20:35;13.63;;;8.63;;
64297;SDS011;50639;53.270;7.956;2023-08-12T05:23:00;12.93;;;7.65;;
64297;SDS011;50639;53.270;7.956;2023-08-12T05:25:27;11.68;;;7.53;;
64297;SDS011;50639;53.270;7.956;2023-08-12T05:27:52;10.10;;;7.50;;
64297;SDS011;50639;53.270;7.956;2023-08-12T05:30:18;9.85;;;7.13;;
64297;SDS011;50639;53.270;7.956;2023-08-12T05:32:43;13.45;;;9.00;;
64297;SDS011;50639;53.270;7.956;2023-08-12T05:35:09;13.52;;;7.20;;
64297;SDS011;50639;53.270;7.956;2023-08-12T05:37:34;10.90;;;7.32;;
64297;SDS011;50639;53.270;7.956;2023-08-12T05:40:00;11.30;;;7.43;;
64297;SDS011;50639;53.270;7.956;2023-08-12T05:42:25;16.75;;;7.72;;
64297;SDS011;50639;53.270;7.956;2023-08-12T05:44:50;9.55;;;7.55;;
64297;SDS011;50639;53.270;7.956;2023-08-12T05:47:16;14.88;;;8.88;;
64297;SDS011;50639;53.270;7.956;2023-08-12T05:49:41;18.60;;;9.80;;
64297;SDS011;50639;53.270;7.956;2023-08-12T05:52:07;15.65;;;8.73;;
64297;SDS011;50639;53.270;7.956;2023-08-12T05:54:32;12.68;;;7.90;;
64297;SDS011;50639;53.270;7.956;2023-08-12T05:56:58;15.65;;;8.95;;
64297;SDS011;50639;53.270;7.956;2023-08-12T05:59:24;13.98;;;9.32;;
64297;SDS011;50639;53.270;7.956;2023-08-12T06:01:49;14.63;;;8.13;;
64297;SDS011;50639;53.270;7.956;2023-08-12T06:04:15;13.13;;;7.88;;
64297;SDS011;50639;53.270;7.956;2023-08-12T06:06:40;12.15;;;8.13;;
64297;SDS011;50639;53.270;7.956;2023-08-12T06:09:05;15.60;;;10.25;;
64297;SDS011;50639;53.270;7.956;2023-08-12T06:11:31;14.65;;;8.75;;
64297;SDS011;50639;53.270;7.956;2023-08-12T06:13:56;13.38;;;9.10;;
64297;SDS011;50639;53.270;7.956;2023-08-12T06:16:21;14.55;;;8.98;;
64297;SDS011;50639;53.270;7.956;2023-08-12T06:18:47;13.80;;;8.35;;
64297;SDS011;50639;53.270;7.956;2023-08-12T06:21:12;13.70;;;7.97;;
64297;SDS011;50639;53.270;7.956;2023-08-12T06:23:37;12.73;;;8.50;;
64297;SDS011;50639;53.270;7.956;2023-08-12T06:26:03;15.05;;;9.15;;
64297;SDS011;50639;53.270;7.956;2023-08-12T06:28:28;15.15;;;9.25;;
64297;SDS011;50639;53.270;7.956;2023-08-12T06:30:54;12.93;;;8.43;;
64297;SDS011;50639;53.270;7.956;2023-08-12T06:33:19;12.23;;;8.88;;
64297;SDS011;50639;53.270;7.956;2023-08-12T06:35:44;13.85;;;8.07;;
64297;SDS011;50639;53.270;7.956;2023-08-12T06:38:10;13.90;;;8.40;;
64297;SDS011;50639;53.270;7.956;2023-08-12T06:40:36;12.75;;;7.40;;
64297;SDS011;50639;53.270;7.956;2023-08-12T06:43:03;13.90;;;8.13;;
64297;SDS011;50639;53.270;7.956;2023-08-12T06:45:28;13.90;;;8.35;;
64297;SDS011;50639;53.270;7.956;2023-08-12T06:47:54;14.98;;;8.18;;
64297;SDS011;50639;53.270;7.956;2023-08-12T06:50:19;12.77;;;7.60;;
64297;SDS011;50639;53.270;7.956;2023-08-12T06:52:44;12.85;;;7.82;;
64297;SDS011;50639;53.270;7.956;2023-08-12T06:55:10;12.25;;;8.88;;
64297;SDS011;50639;53.270;7.956;2023-08-12T06:57:35;12.55;;;7.53;;
64297;SDS011;50639;53.270;7.956;2023-08-12T07:00:01;11.43;;;8.30;;
64297;SDS011;50639;53.270;7.956;2023-08-12T07:02:27;13.73;;;7.63;;
64297;SDS011;50639;53.270;7.956;2023-08-12T07:04:52;17.60;;;8.80;;
64297;SDS011;50639;53.270;7.956;2023-08-12T07:07:17;11.15;;;7.72;;
64297;SDS011;50639;53.270;7.956;2023-08-12T07:09:43;10.32;;;7.03;;
64297;SDS011;50639;53.270;7.956;2023-08-12T07:12:08;12.32;;;7.65;;
64297;SDS011;50639;53.270;7.956;2023-08-12T07:14:34;13.00;;;7.78;;
64297;SDS011;50639;53.270;7.956;2023-08-12T07:17:00;13.63;;;8.02;;
64297;SDS011;50639;53.270;7.956;2023-08-12T07:19:26;13.77;;;7.05;;
64297;SDS011;50639;53.270;7.956;2023-08-12T07:21:51;11.05;;;6.82;;
64297;SDS011;50639;53.270;7.956;2023-08-12T07:24:17;12.05;;;7.50;;
64297;SDS011;50639;53.270;7.956;2023-08-12T07:26:43;11.55;;;6.82;;
64297;SDS011;50639;53.270;7.956;2023-08-12T07:29:08;11.82;;;6.82;;
64297;SDS011;50639;53.270;7.956;2023-08-12T07:31:33;11.90;;;6.43;;
64297;SDS011;50639;53.270;7.956;2023-08-12T07:33:59;11.15;;;7.57;;
64297;SDS011;50639;53.270;7.956;2023-08-12T07:36:24;10.30;;;6.75;;
64297;SDS011;50639;53.270;7.956;2023-08-12T07:38:50;12.38;;;7.32;;
64297;SDS011;50639;53.270;7.956;2023-08-12T07:41:15;10.70;;;6.75;;
64297;SDS011;50639;53.270;7.956;2023-08-12T07:43:40;14.88;;;7.10;;
64297;SDS011;50639;53.270;7.956;2023-08-12T07:46:06;13.65;;;6.90;;
64297;SDS011;50639;53.270;7.956;2023-08-12T07:48:31;11.57;;;7.10;;
64297;SDS011;50639;53.270;7.956;2023-08-12T07:50:57;11.23;;;7.00;;
64297;SDS011;50639;53.270;7.956;2023-08-12T07:53:23;11.45;;;7.47;;
64297;SDS011;50639;53.270;7.956;2023-08-12T07:55:48;11.20;;;7.25;;
64297;SDS011;50639;53.270;7.956;2023-08-12T07:58:14;16.98;;;7.63;;
64297;SDS011;50639;53.270;7.956;2023-08-12T08:00:39;9.10;;;6.82;;
64297;SDS011;50639;53.270;7.956;2023-08-12T08:03:04;10.45;;;6.10;;
64297;SDS011;50639;53.270;7.956;2023-08-12T08:05:30;13.60;;;8.00;;
64297;SDS011;50639;53.270;7.956;2023-08-12T08:07:55;12.00;;;7.10;;
64297;SDS011;50639;53.270;7.956;2023-08-12T08:10:21;11.35;;;6.90;;
64297;SDS011;50639;53.270;7.956;2023-08-12T08:12:46;11.20;;;7.15;;
64297;SDS011;50639;53.270;7.956;2023-08-12T08:15:12;11.10;;;6.87;;
64297;SDS011;50639;53.270;7.956;2023-08-12T08:17:37;15.30;;;11.85;;
64297;SDS011;50639;53.270;7.956;2023-08-12T08:20:03;13.10;;;8.48;;
64297;SDS011;50639;53.270;7.956;2023-08-12T08:22:31;12.23;;;8.02;;
64297;SDS011;50639;53.270;7.956;2023-08-12T08:24:56;13.57;;;7.55;;
64297;SDS011;50639;53.270;7.956;2023-08-12T08:27:22;13.45;;;8.40;;
64297;SDS011;50639;53.270;7.956;2023-08-12T08:29:47;10.75;;;7.75;;
64297;SDS011;50639;53.270;7.956;2023-08-12T08:32:13;12.57;;;8.70;;
64297;SDS011;50639;53.270;7.956;2023-08-12T08:34:38;15.32;;;8.43;;
64297;SDS011;50639;53.270;7.956;2023-08-12T08:37:04;11.73;;;8.27;;
64297;SDS011;50639;53.270;7.956;2023-08-12T08:39:30;14.50;;;8.68;;
64297;SDS011;50639;53.270;7.956;2023-08-12T08:41:56;15.57;;;8.32;;
64297;SDS011;50639;53.270;7.956;2023-08-12T08:44:22;11.70;;;8.75;;
64297;SDS011;50639;53.270;7.956;2023-08-12T08:46:50;12.63;;;8.63;;
64297;SDS011;50639;53.270;7.956;2023-08-12T08:49:18;11.55;;;7.03;;
64297;SDS011;50639;53.270;7.956;2023-08-12T08:51:43;11.75;;;7.80;;
64297;SDS011;50639;53.270;7.956;2023-08-12T08:54:14;13.05;;;8.48;;
64297;SDS011;50639;53.270;7.956;2023-08-12T08:56:40;11.43;;;8.27;;
64297;SDS011;50639;53.270;7.956;2023-08-12T08:59:06;13.80;;;8.32;;
64297;SDS011;50639;53.270;7.956;2023-08-12T09:01:31;14.02;;;7.95;;
64297;SDS011;50639;53.270;7.956;2023-08-12T09:03:57;14.02;;;8.68;;
64297;SDS011;50639;53.270;7.956;2023-08-12T09:06:24;13.30;;;9.25;;
64297;SDS011;50639;53.270;7.956;2023-08-12T09:08:53;11.77;;;7.57;;
64297;SDS011;50639;53.270;7.956;2023-08-12T09:11:19;11.80;;;7.22;;
64297;SDS011;50639;53.270;7.956;2023-08-12T09:13:46;15.60;;;6.88;;
64297;SDS011;50639;53.270;7.956;2023-08-12T09:16:12;13.13;;;7.83;;
64297;SDS011;50639;53.270;7.956;2023-08-12T09:18:37;12.50;;;7.95;;
64297;SDS011;50639;53.270;7.956;2023-08-12T09:21:03;10.68;;;7.40;;
64297;SDS011;50639;53.270;7.956;2023-08-12T09:23:33;9.40;;;6.45;;
64297;SDS011;50639;53.270;7.956;2023-08-12T09:26:00;11.68;;;6.63;;
64297;SDS011;50639;53.270;7.956;2023-08-12T09:28:26;11.07;;;6.63;;
64297;SDS011;50639;53.270;7.956;2023-08-12T09:30:52;12.57;;;6.93;;
64297;SDS011;50639;53.270;7.956;2023-08-12T09:33:18;11.18;;;6.43;;
64297;SDS011;50639;53.270;7.956;2023-08-12T09:35:50;17.30;;;7.35;;
64297;SDS011;50639;53.270;7.956;2023-08-12T09:38:15;15.32;;;6.80;;
64297;SDS011;50639;53.270;7.956;2023-08-12T09:40:41;14.38;;;7.03;;
64297;SDS011;50639;53.270;7.956;2023-08-12T09:43:08;11.13;;;7.32;;
64297;SDS011;50639;53.270;7.956;2023-08-12T09:45:34;11.23;;;6.82;;
64297;SDS011;50639;53.270;7.956;2023-08-12T09:48:00;11.48;;;6.65;;
64297;SDS011;50639;53.270;7.956;2023-08-12T09:50:26;11.80;;;7.45;;
64297;SDS011;50639;53.270;7.956;2023-08-12T09:52:52;16.90;;;7.90;;
64297;SDS011;50639;53.270;7.956;2023-08-12T09:55:19;13.73;;;6.72;;
64297;SDS011;50639;53.270;7.956;2023-08-12T09:57:55;12.23;;;7.30;;
64297;SDS011;50639;53.270;7.956;2023-08-12T10:00:22;13.68;;;8.80;;
64297;SDS011;50639;53.270;7.956;2023-08-12T10:02:50;12.77;;;7.70;;
64297;SDS011;50639;53.270;7.956;2023-08-12T10:07:51;13.80;;;8.63;;
64297;SDS011;50639;53.270;7.956;2023-08-12T10:10:18;16.15;;;8.38;;
64297;SDS011;50639;53.270;7.956;2023-08-12T10:12:44;11.07;;;8.00;;
64297;SDS011;50639;53.270;7.956;2023-08-12T10:15:10;15.00;;;8.90;;
64297;SDS011;50639;53.270;7.956;2023-08-12T10:17:37;12.88;;;7.47;;
64297;SDS011;50639;53.270;7.956;2023-08-12T10:20:03;14.93;;;8.10;;
64297;SDS011;50639;53.270;7.956;2023-08-12T10:22:29;11.02;;;8.25;;
64297;SDS011;50639;53.270;7.956;2023-08-12T10:24:58;13.10;;;7.90;;
64297;SDS011;50639;53.270;7.956;2023-08-12T10:27:26;13.68;;;8.27;;
64297;SDS011;50639;53.270;7.956;2023-08-12T10:29:51;13.30;;;7.65;;
64297;SDS011;50639;53.270;7.956;2023-08-12T10:32:17;13.35;;;6.88;;
64297;SDS011;50639;53.270;7.956;2023-08-12T10:34:42;12.68;;;7.78;;
64297;SDS011;50639;53.270;7.956;2023-08-12T10:37:09;11.43;;;6.53;;
64297;SDS011;50639;53.270;7.956;2023-08-12T10:39:36;12.73;;;6.95;;
64297;SDS011;50639;53.270;7.956;2023-08-12T10:42:02;12.48;;;6.72;;
64297;SDS011;50639;53.270;7.956;2023-08-12T10:47:30;14.57;;;7.75;;
64297;SDS011;50639;53.270;7.956;2023-08-12T10:49:56;10.90;;;7.75;;
64297;SDS011;50639;53.270;7.956;2023-08-12T10:52:29;11.25;;;7.82;;
64297;SDS011;50639;53.270;7.956;2023-08-12T10:58:01;11.52;;;8.27;;
64297;SDS011;50639;53.270;7.956;2023-08-12T11:00:33;12.30;;;8.82;;
64297;SDS011;50639;53.270;7.956;2023-08-12T11:03:00;13.32;;;8.95;;
64297;SDS011;50639;53.270;7.956;2023-08-12T11:05:36;14.68;;;10.32;;
64297;SDS011;50639;53.270;7.956;2023-08-12T11:08:02;15.25;;;8.23;;
64297;SDS011;50639;53.270;7.956;2023-08-12T11:10:31;16.65;;;11.25;;
64297;SDS011;50639;53.270;7.956;2023-08-12T11:12:59;12.57;;;8.55;;
64297;SDS011;50639;53.270;7.956;2023-08-12T11:15:38;15.40;;;10.83;;
64297;SDS011;50639;53.270;7.956;2023-08-12T11:20:37;11.60;;;8.27;;
64297;SDS011;50639;53.270;7.956;2023-08-12T11:23:03;14.00;;;9.70;;
64297;SDS011;50639;53.270;7.956;2023-08-12T11:25:30;12.65;;;7.85;;
64297;SDS011;50639;53.270;7.956;2023-08-12T11:27:57;11.27;;;7.70;;
64297;SDS011;50639;53.270;7.956;2023-08-12T11:30:23;10.90;;;6.70;;
64297;SDS011;50639;53.270;7.956;2023-08-12T11:32:49;13.52;;;7.40;;
64297;SDS011;50639;53.270;7.956;2023-08-12T11:35:17;12.00;;;7.07;;
64297;SDS011;50639;53.270;7.956;2023-08-12T11:37:47;10.47;;;5.80;;
64297;SDS011;50639;53.270;7.956;2023-08-12T11:40:14;9.45;;;6.68;;
64297;SDS011;50639;53.270;7.956;2023-08-12T11:42:42;9.13;;;6.35;;
64297;SDS011;50639;53.270;7.956;2023-08-12T11:45:09;9.52;;;6.25;;
64297;SDS011;50639;53.270;7.956;2023-08-12T11:47:36;14.48;;;7.40;;
64297;SDS011;50639;53.270;7.956;2023-08-12T11:50:07;12.38;;;8.15;;
64297;SDS011;50639;53.270;7.956;2023-08-12T11:52:34;8.23;;;5.53;;
64297;SDS011;50639;53.270;7.956;2023-08-12T11:55:01;10.88;;;7.38;;
64297;SDS011;50639;53.270;7.956;2023-08-12T11:57:27;9.82;;;6.47;;
64297;SDS011;50639;53.270;7.956;2023-08-12T12:00:03;13.25;;;7.60;;
64297;SDS011;50639;53.270;7.956;2023-08-12T12:02:38;9.45;;;6.75;;
64297;SDS011;50639;53.270;7.956;2023-08-12T12:05:07;8.65;;;6.28;;
64297;SDS011;50639;53.270;7.956;2023-08-12T12:07:34;9.48;;;6.57;;
64297;SDS011;50639;53.270;7.956;2023-08-12T12:09:59;10.18;;;6.72;;
64297;SDS011;50639;53.270;7.956;2023-08-12T12:12:24;9.80;;;6.05;;
64297;SDS011;50639;53.270;7.956;2023-08-12T12:14:53;9.02;;;6.22;;
64297;SDS011;50639;53.270;7.956;2023-08-12T12:17:22;10.35;;;6.93;;
64297;SDS011;50639;53.270;7.956;2023-08-12T12:19:58;8.50;;;6.28;;
64297;SDS011;50639;53.270;7.956;2023-08-12T12:22:31;11.40;;;7.25;;
64297;SDS011;50639;53.270;7.956;2023-08-12T12:25:06;11.70;;;7.10;;
64297;SDS011;50639;53.270;7.956;2023-08-12T12:27:32;11.68;;;7.45;;
64297;SDS011;50639;53.270;7.956;2023-08-12T12:29:59;11.50;;;7.60;;
64297;SDS011;50639;53.270;7.956;2023-08-12T12:32:25;10.88;;;8.63;;
64297;SDS011;50639;53.270;7.956;2023-08-12T12:34:51;13.80;;;8.50;;
64297;SDS011;50639;53.270;7.956;2023-08-12T12:37:17;11.10;;;7.80;;
64297;SDS011;50639;53.270;7.956;2023-08-12T12:39:42;11.05;;;7.50;;
64297;SDS011;50639;53.270;7.956;2023-08-12T12:42:08;5.50;;;3.50;;
64297;SDS011;50639;53.270;7.956;2023-08-12T12:44:34;4.30;;;3.10;;
64297;SDS011;50639;53.270;7.956;2023-08-12T12:47:00;4.22;;;2.75;;
64297;SDS011;50639;53.270;7.956;2023-08-12T12:49:25;3.47;;;2.40;;
64297;SDS011;50639;53.270;7.956;2023-08-12T12:51:51;9.68;;;2.97;;
64297;SDS011;50639;53.270;7.956;2023-08-12T12:54:17;27.85;;;3.63;;
64297;SDS011;50639;53.270;7.956;2023-08-12T12:56:42;6.93;;;2.38;;
64297;SDS011;50639;53.270;7.956;2023-08-12T13:00:06;26.80;;;3.78;;
64297;SDS011;50639;53.270;7.956;2023-08-12T13:03:30;125.03;;;7.72;;
64297;SDS011;50639;53.270;7.956;2023-08-12T13:05:56;12.80;;;3.50;;
64297;SDS011;50639;53.270;7.956;2023-08-12T13:08:46;25.73;;;3.45;;
64297;SDS011;50639;53.270;7.956;2023-08-12T13:11:12;7.70;;;2.92;;
64297;SDS011;50639;53.270;7.956;2023-08-12T13:13:37;8.65;;;3.47;;
64297;SDS011;50639;53.270;7.956;2023-08-12T13:16:03;3.88;;;2.40;;
64297;SDS011;50639;53.270;7.956;2023-08-12T13:18:28;2.72;;;2.03;;
64297;SDS011;50639;53.270;7.956;2023-08-12T13:20:54;9.40;;;3.40;;
64297;SDS011;50639;53.270;7.956;2023-08-12T13:23:20;7.50;;;3.42;;
64297;SDS011;50639;53.270;7.956;2023-08-12T13:25:45;4.35;;;3.00;;
64297;SDS011;50639;53.270;7.956;2023-08-12T13:28:11;5.53;;;3.30;;
64297;SDS011;50639;53.270;7.956;2023-08-12T13:30:36;8.20;;;4.40;;
64297;SDS011;50639;53.270;7.956;2023-08-12T13:33:02;8.57;;;3.90;;
64297;SDS011;50639;53.270;7.956;2023-08-12T13:35:28;13.15;;;4.53;;
64297;SDS011;50639;53.270;7.956;2023-08-12T13:37:54;8.43;;;5.00;;
64297;SDS011;50639;53.270;7.956;2023-08-12T13:40:19;8.82;;;5.68;;
64297;SDS011;50639;53.270;7.956;2023-08-12T13:42:45;10.90;;;6.72;;
64297;SDS011;50639;53.270;7.956;2023-08-12T13:45:13;15.23;;;7.53;;
64297;SDS011;50639;53.270;7.956;2023-08-12T13:47:38;8.30;;;5.18;;
64297;SDS011;50639;53.270;7.956;2023-08-12T13:50:04;8.23;;;5.57;;
64297;SDS011;50639;53.270;7.956;2023-08-12T13:52:30;12.02;;;5.60;;
64297;SDS011;50639;53.270;7.956;2023-08-12T13:54:55;10.63;;;6.45;;
64297;SDS011;50639;53.270;7.956;2023-08-12T13:57:21;7.45;;;4.97;;
64297;SDS011;50639;53.270;7.956;2023-08-12T13:59:46;6.43;;;4.28;;
64297;SDS011;50639;53.270;7.956;2023-08-12T14:02:12;7.68;;;4.60;;
64297;SDS011;50639;53.270;7.956;2023-08-12T14:04:38;7.55;;;4.18;;
64297;SDS011;50639;53.270;7.956;2023-08-12T14:07:04;6.15;;;4.18;;
64297;SDS011;50639;53.270;7.956;2023-08-12T14:09:30;5.43;;;4.25;;
64297;SDS011;50639;53.270;7.956;2023-08-12T14:12:20;5.75;;;3.67;;
64297;SDS011;50639;53.270;7.956;2023-08-12T14:15:15;5.00;;;3.58;;
64297;SDS011;50639;53.270;7.956;2023-08-12T14:17:45;6.22;;;3.63;;
64297;SDS011;50639;53.270;7.956;2023-08-12T14:20:12;5.10;;;3.60;;
64297;SDS011;50639;53.270;7.956;2023-08-12T14:22:45;4.07;;;3.17;;
64297;SDS011;50639;53.270;7.956;2023-08-12T14:25:57;6.70;;;4.30;;
64297;SDS011;50639;53.270;7.956;2023-08-12T14:28:23;4.65;;;3.38;;
64297;SDS011;50639;53.270;7.956;2023-08-12T14:30:49;6.47;;;3.55;;
64297;SDS011;50639;53.270;7.956;2023-08-12T14:33:14;5.00;;;3.38;;
64297;SDS011;50639;53.270;7.956;2023-08-12T14:35:39;7.05;;;3.78;;
64297;SDS011;50639;53.270;7.956;2023-08-12T14:38:05;4.50;;;3.08;;
64297;SDS011;50639;53.270;7.956;2023-08-12T14:40:30;2.33;;;2.13;;
64297;SDS011;50639;53.270;7.956;2023-08-12T14:42:56;3.83;;;2.80;;
64297;SDS011;50639;53.270;7.956;2023-08-12T14:45:21;2.50;;;2.30;;
64297;SDS011;50639;53.270;7.956;2023-08-12T14:47:46;3.55;;;2.25;;
64297;SDS011;50639;53.270;7.956;2023-08-12T14:50:12;2.38;;;1.75;;
64297;SDS011;50639;53.270;7.956;2023-08-12T14:52:37;1.70;;;1.60;;